sensor_id;sensor_type;location;lat;lon;timestamp;pressure;altitude;pressure_sealevel;temperature;humidity
6090;BME280;3073;42.660;23.316;2023-07-24T00:00:07;94775.66;;;28.44;52.73
6090;BME280;3073;42.660;23.316;2023-07-24T00:02:34;94774.25;;;27.56;55.03
6090;BME280;3073;42.660;23.316;2023-07-24T00:05:01;94774.66;;;28.02;53.94
6090;BME280;3073;42.660;23.316;2023-07-24T00:07:30;94777.63;;;28.16;53.92
6090;BME280;3073;42.660;23.316;2023-07-24T00:09:57;94779.63;;;28.54;53.11
6090;BME280;3073;42.660;23.316;2023-07-24T00:12:36;94777.97;;;28.81;52.27
6090;BME280;3073;42.660;23.316;2023-07-24T00:15:05;94769.47;;;29.06;51.80
6090;BME280;3073;42.660;23.316;2023-07-24T00:17:32;94772.84;;;29.07;51.44
6090;BME280;3073;42.660;23.316;2023-07-24T00:19:59;94769.78;;;28.86;51.81
6090;BME280;3073;42.660;23.316;2023-07-24T00:22:26;94774.31;;;28.85;52.09
6090;BME280;3073;42.660;23.316;2023-07-24T00:24:54;94773.47;;;28.81;51.55
6090;BME280;3073;42.660;23.316;2023-07-24T00:27:21;94780.75;;;28.88;51.66
6090;BME280;3073;42.660;23.316;2023-07-24T00:29:48;94773.41;;;29.16;50.49
6090;BME280;3073;42.660;23.316;2023-07-24T00:32:15;94771.41;;;29.09;51.12
6090;BME280;3073;42.660;23.316;2023-07-24T00:34:42;94764.16;;;29.41;50.23
6090;BME280;3073;42.660;23.316;2023-07-24T00:37:08;94762.56;;;29.37;49.95
6090;BME280;3073;42.660;23.316;2023-07-24T00:39:35;94768.06;;;29.12;50.63
6090;BME280;3073;42.660;23.316;2023-07-24T00:42:04;94771.88;;;28.61;51.04
6090;BME280;3073;42.660;23.316;2023-07-24T00:44:31;94760.75;;;28.33;51.66
6090;BME280;3073;42.660;23.316;2023-07-24T00:46:57;94766.44;;;28.03;52.64
6090;BME280;3073;42.660;23.316;2023-07-24T00:49:25;94767.16;;;28.51;52.00
6090;BME280;3073;42.660;23.316;2023-07-24T00:51:52;94768.91;;;28.78;51.73
6090;BME280;3073;42.660;23.316;2023-07-24T00:54:19;94767.97;;;29.05;50.89
6090;BME280;3073;42.660;23.316;2023-07-24T00:56:48;94768.84;;;29.13;50.50
6090;BME280;3073;42.660;23.316;2023-07-24T00:59:16;94763.56;;;29.29;49.89
6090;BME280;3073;42.660;23.316;2023-07-24T01:01:44;94756.94;;;29.19;50.14
6090;BME280;3073;42.660;23.316;2023-07-24T01:04:11;94758.94;;;29.06;50.28
6090;BME280;3073;42.660;23.316;2023-07-24T01:06:37;94759.09;;;28.75;50.79
6090;BME280;3073;42.660;23.316;2023-07-24T01:09:05;94751.34;;;29.01;50.31
6090;BME280;3073;42.660;23.316;2023-07-24T01:11:36;94753.50;;;29.15;51.21
6090;BME280;3073;42.660;23.316;2023-07-24T01:14:08;94757.16;;;29.10;52.04
6090;BME280;3073;42.660;23.316;2023-07-24T01:16:42;94759.34;;;28.89;53.67
6090;BME280;3073;42.660;23.316;2023-07-24T01:19:12;94759.78;;;28.91;53.92
6090;BME280;3073;42.660;23.316;2023-07-24T01:21:52;94758.94;;;28.68;54.76
6090;BME280;3073;42.660;23.316;2023-07-24T01:24:30;94750.41;;;28.40;57.96
6090;BME280;3073;42.660;23.316;2023-07-24T01:27:01;94736.84;;;28.19;58.87
6090;BME280;3073;42.660;23.316;2023-07-24T01:29:29;94740.53;;;27.86;61.00
6090;BME280;3073;42.660;23.316;2023-07-24T01:31:56;94740.38;;;28.10;60.44
6090;BME280;3073;42.660;23.316;2023-07-24T01:34:23;94744.06;;;28.41;59.86
6090;BME280;3073;42.660;23.316;2023-07-24T01:36:50;94740.88;;;28.32;59.68
6090;BME280;3073;42.660;23.316;2023-07-24T01:39:20;94730.75;;;28.15;59.75
6090;BME280;3073;42.660;23.316;2023-07-24T01:41:47;94737.91;;;28.33;59.22
6090;BME280;3073;42.660;23.316;2023-07-24T01:44:15;94753.72;;;28.37;58.73
6090;BME280;3073;42.660;23.316;2023-07-24T01:46:42;94773.16;;;28.67;57.73
6090;BME280;3073;42.660;23.316;2023-07-24T01:49:10;94776.72;;;28.59;57.78
6090;BME280;3073;42.660;23.316;2023-07-24T01:51:37;94769.25;;;28.61;57.65
6090;BME280;3073;42.660;23.316;2023-07-24T01:54:03;94764.53;;;28.51;58.18
6090;BME280;3073;42.660;23.316;2023-07-24T01:56:31;94762.34;;;28.69;57.31
6090;BME280;3073;42.660;23.316;2023-07-24T01:58:57;94760.28;;;28.62;56.86
6090;BME280;3073;42.660;23.316;2023-07-24T02:01:25;94758.00;;;28.60;57.03
6090;BME280;3073;42.660;23.316;2023-07-24T02:03:52;94761.38;;;28.61;56.82
6090;BME280;3073;42.660;23.316;2023-07-24T02:06:19;94764.81;;;28.30;56.44
6090;BME280;3073;42.660;23.316;2023-07-24T02:08:47;94764.81;;;27.52;58.12
6090;BME280;3073;42.660;23.316;2023-07-24T02:11:14;94762.53;;;27.66;57.70
6090;BME280;3073;42.660;23.316;2023-07-24T02:13:43;94743.25;;;27.74;57.60
6090;BME280;3073;42.660;23.316;2023-07-24T02:16:10;94747.50;;;27.79;58.05
6090;BME280;3073;42.660;23.316;2023-07-24T02:18:39;94748.44;;;28.18;57.08
6090;BME280;3073;42.660;23.316;2023-07-24T02:21:05;94757.75;;;28.15;57.42
6090;BME280;3073;42.660;23.316;2023-07-24T02:23:32;94750.88;;;28.10;57.32
6090;BME280;3073;42.660;23.316;2023-07-24T02:26:00;94752.81;;;28.13;57.28
6090;BME280;3073;42.660;23.316;2023-07-24T02:28:27;94747.13;;;27.80;57.49
6090;BME280;3073;42.660;23.316;2023-07-24T02:30:53;94742.31;;;27.39;58.02
6090;BME280;3073;42.660;23.316;2023-07-24T02:33:22;94747.38;;;27.59;56.89
6090;BME280;3073;42.660;23.316;2023-07-24T02:35:52;94744.06;;;27.47;55.13
6090;BME280;3073;42.660;23.316;2023-07-24T02:38:19;94741.91;;;27.65;53.88
6090;BME280;3073;42.660;23.316;2023-07-24T02:40:45;94744.59;;;27.68;54.18
6090;BME280;3073;42.660;23.316;2023-07-24T02:43:12;94743.75;;;27.64;53.95
6090;BME280;3073;42.660;23.316;2023-07-24T02:45:40;94751.28;;;27.81;53.69
6090;BME280;3073;42.660;23.316;2023-07-24T02:48:07;94746.25;;;27.45;53.28
6090;BME280;3073;42.660;23.316;2023-07-24T02:50:34;94744.44;;;27.05;53.29
6090;BME280;3073;42.660;23.316;2023-07-24T02:53:02;94752.78;;;27.39;52.94
6090;BME280;3073;42.660;23.316;2023-07-24T02:55:29;94744.91;;;27.51;52.81
6090;BME280;3073;42.660;23.316;2023-07-24T02:57:56;94741.28;;;27.55;53.22
6090;BME280;3073;42.660;23.316;2023-07-24T03:00:23;94746.09;;;27.69;53.14
6090;BME280;3073;42.660;23.316;2023-07-24T03:02:50;94743.56;;;27.73;52.88
6090;BME280;3073;42.660;23.316;2023-07-24T03:05:17;94737.66;;;27.60;53.28
6090;BME280;3073;42.660;23.316;2023-07-24T03:07:44;94743.25;;;27.74;53.12
6090;BME280;3073;42.660;23.316;2023-07-24T03:10:12;94736.19;;;27.47;53.37
6090;BME280;3073;42.660;23.316;2023-07-24T03:12:39;94730.06;;;27.43;53.53
6090;BME280;3073;42.660;23.316;2023-07-24T03:15:06;94730.50;;;27.01;54.92
6090;BME280;3073;42.660;23.316;2023-07-24T03:17:34;94733.38;;;26.84;55.63
6090;BME280;3073;42.660;23.316;2023-07-24T03:20:08;94738.22;;;27.53;53.11
6090;BME280;3073;42.660;23.316;2023-07-24T03:22:35;94740.13;;;27.69;52.55
6090;BME280;3073;42.660;23.316;2023-07-24T03:25:02;94741.22;;;27.83;52.01
6090;BME280;3073;42.660;23.316;2023-07-24T03:27:30;94731.91;;;27.70;52.69
6090;BME280;3073;42.660;23.316;2023-07-24T03:29:57;94743.25;;;27.58;52.67
6090;BME280;3073;42.660;23.316;2023-07-24T03:32:26;94746.09;;;27.69;52.98
6090;BME280;3073;42.660;23.316;2023-07-24T03:34:52;94738.41;;;27.33;53.75
6090;BME280;3073;42.660;23.316;2023-07-24T03:37:19;94742.38;;;27.54;53.39
6090;BME280;3073;42.660;23.316;2023-07-24T03:39:46;94748.06;;;27.01;54.61
6090;BME280;3073;42.660;23.316;2023-07-24T03:42:24;94747.31;;;26.48;55.86
6090;BME280;3073;42.660;23.316;2023-07-24T03:44:53;94747.00;;;26.90;54.81
6090;BME280;3073;42.660;23.316;2023-07-24T03:47:19;94738.69;;;27.00;54.79
6090;BME280;3073;42.660;23.316;2023-07-24T03:49:46;94737.72;;;26.92;55.48
6090;BME280;3073;42.660;23.316;2023-07-24T03:52:13;94742.44;;;27.15;55.45
6090;BME280;3073;42.660;23.316;2023-07-24T03:54:40;94748.38;;;27.27;55.16
6090;BME280;3073;42.660;23.316;2023-07-24T03:57:06;94749.56;;;27.30;56.12
6090;BME280;3073;42.660;23.316;2023-07-24T03:59:33;94743.16;;;27.55;56.51
6090;BME280;3073;42.660;23.316;2023-07-24T04:02:02;94747.72;;;27.74;57.35
6090;BME280;3073;42.660;23.316;2023-07-24T04:04:28;94749.94;;;27.87;57.39
6090;BME280;3073;42.660;23.316;2023-07-24T04:06:55;94742.75;;;28.16;57.07
6090;BME280;3073;42.660;23.316;2023-07-24T04:09:22;94752.22;;;28.20;56.89
6090;BME280;3073;42.660;23.316;2023-07-24T04:11:49;94761.19;;;28.35;56.46
6090;BME280;3073;42.660;23.316;2023-07-24T04:14:17;94757.91;;;28.22;55.79
6090;BME280;3073;42.660;23.316;2023-07-24T04:16:44;94769.50;;;28.21;55.33
6090;BME280;3073;42.660;23.316;2023-07-24T04:19:12;94771.34;;;28.05;55.23
6090;BME280;3073;42.660;23.316;2023-07-24T04:21:39;94776.28;;;28.22;54.72
6090;BME280;3073;42.660;23.316;2023-07-24T04:24:06;94772.09;;;27.74;53.81
6090;BME280;3073;42.660;23.316;2023-07-24T04:26:33;94770.50;;;27.85;54.17
6090;BME280;3073;42.660;23.316;2023-07-24T04:29:00;94768.78;;;27.93;53.63
6090;BME280;3073;42.660;23.316;2023-07-24T04:31:27;94766.69;;;27.83;54.25
6090;BME280;3073;42.660;23.316;2023-07-24T04:33:54;94760.09;;;26.90;54.05
6090;BME280;3073;42.660;23.316;2023-07-24T04:36:22;94760.34;;;27.99;51.84
6090;BME280;3073;42.660;23.316;2023-07-24T04:38:49;94766.13;;;28.21;51.77
6090;BME280;3073;42.660;23.316;2023-07-24T04:41:16;94764.09;;;28.14;52.52
6090;BME280;3073;42.660;23.316;2023-07-24T04:43:42;94765.03;;;28.72;51.24
6090;BME280;3073;42.660;23.316;2023-07-24T04:46:09;94761.28;;;28.73;51.46
6090;BME280;3073;42.660;23.316;2023-07-24T04:48:36;94763.06;;;28.69;51.31
6090;BME280;3073;42.660;23.316;2023-07-24T04:51:03;94768.06;;;28.74;50.55
6090;BME280;3073;42.660;23.316;2023-07-24T04:53:31;94772.09;;;29.26;49.98
6090;BME280;3073;42.660;23.316;2023-07-24T04:55:58;94766.72;;;29.38;48.90
6090;BME280;3073;42.660;23.316;2023-07-24T04:58:25;94777.03;;;29.69;48.33
6090;BME280;3073;42.660;23.316;2023-07-24T05:00:52;94764.88;;;29.61;48.42
6090;BME280;3073;42.660;23.316;2023-07-24T05:03:18;94777.59;;;29.59;47.49
6090;BME280;3073;42.660;23.316;2023-07-24T05:05:48;94785.44;;;29.17;47.74
6090;BME280;3073;42.660;23.316;2023-07-24T05:08:14;94776.00;;;29.74;47.44
6090;BME280;3073;42.660;23.316;2023-07-24T05:10:43;94770.47;;;30.01;47.53
6090;BME280;3073;42.660;23.316;2023-07-24T05:13:10;94777.94;;;29.99;47.40
6090;BME280;3073;42.660;23.316;2023-07-24T05:15:37;94783.03;;;30.11;47.48
6090;BME280;3073;42.660;23.316;2023-07-24T05:18:04;94777.25;;;30.02;47.73
6090;BME280;3073;42.660;23.316;2023-07-24T05:20:30;94766.50;;;29.88;48.23
6090;BME280;3073;42.660;23.316;2023-07-24T05:22:57;94769.34;;;30.25;48.19
6090;BME280;3073;42.660;23.316;2023-07-24T05:25:24;94773.78;;;30.44;47.91
6090;BME280;3073;42.660;23.316;2023-07-24T05:27:52;94774.88;;;30.43;47.60
6090;BME280;3073;42.660;23.316;2023-07-24T05:30:19;94775.41;;;30.52;47.70
6090;BME280;3073;42.660;23.316;2023-07-24T05:32:46;94767.19;;;30.57;47.47
6090;BME280;3073;42.660;23.316;2023-07-24T05:35:13;94765.97;;;30.51;47.07
6090;BME280;3073;42.660;23.316;2023-07-24T05:37:41;94768.13;;;30.98;46.42
6090;BME280;3073;42.660;23.316;2023-07-24T05:40:10;94764.88;;;30.82;46.48
6090;BME280;3073;42.660;23.316;2023-07-24T05:42:36;94763.69;;;31.05;46.19
6090;BME280;3073;42.660;23.316;2023-07-24T05:45:09;94756.34;;;30.13;48.18
6090;BME280;3073;42.660;23.316;2023-07-24T05:47:37;94763.03;;;30.07;48.16
6090;BME280;3073;42.660;23.316;2023-07-24T05:50:05;94757.09;;;29.45;49.05
6090;BME280;3073;42.660;23.316;2023-07-24T05:52:32;94758.69;;;29.73;49.09
6090;BME280;3073;42.660;23.316;2023-07-24T05:55:00;94753.31;;;30.11;48.38
6090;BME280;3073;42.660;23.316;2023-07-24T05:57:28;94755.91;;;30.34;48.47
6090;BME280;3073;42.660;23.316;2023-07-24T05:59:55;94745.19;;;30.46;46.49
6090;BME280;3073;42.660;23.316;2023-07-24T06:02:23;94743.38;;;30.50;46.32
6090;BME280;3073;42.660;23.316;2023-07-24T06:04:50;94747.25;;;31.16;44.61
6090;BME280;3073;42.660;23.316;2023-07-24T06:07:16;94741.97;;;31.96;44.24
6090;BME280;3073;42.660;23.316;2023-07-24T06:09:43;94746.50;;;32.47;43.18
6090;BME280;3073;42.660;23.316;2023-07-24T06:12:10;94737.66;;;32.83;42.21
6090;BME280;3073;42.660;23.316;2023-07-24T06:14:37;94742.53;;;33.85;41.09
6090;BME280;3073;42.660;23.316;2023-07-24T06:17:04;94745.16;;;33.85;40.49
6090;BME280;3073;42.660;23.316;2023-07-24T06:19:32;94741.75;;;33.81;40.51
6090;BME280;3073;42.660;23.316;2023-07-24T06:21:59;94747.06;;;34.02;40.11
6090;BME280;3073;42.660;23.316;2023-07-24T06:24:26;94750.00;;;34.82;38.57
6090;BME280;3073;42.660;23.316;2023-07-24T06:26:52;94740.25;;;34.26;39.35
6090;BME280;3073;42.660;23.316;2023-07-24T06:29:19;94750.06;;;33.87;40.40
6090;BME280;3073;42.660;23.316;2023-07-24T06:31:47;94739.47;;;34.04;40.41
6090;BME280;3073;42.660;23.316;2023-07-24T06:34:19;94740.63;;;33.79;40.58
6090;BME280;3073;42.660;23.316;2023-07-24T06:36:47;94751.22;;;34.21;40.42
6090;BME280;3073;42.660;23.316;2023-07-24T06:39:14;94747.19;;;35.28;38.93
6090;BME280;3073;42.660;23.316;2023-07-24T06:41:41;94748.81;;;34.97;38.99
6090;BME280;3073;42.660;23.316;2023-07-24T06:44:08;94740.91;;;35.67;38.58
6090;BME280;3073;42.660;23.316;2023-07-24T06:46:34;94738.34;;;36.07;38.24
6090;BME280;3073;42.660;23.316;2023-07-24T06:49:01;94743.91;;;35.72;37.91
6090;BME280;3073;42.660;23.316;2023-07-24T06:51:28;94744.28;;;35.71;38.02
6090;BME280;3073;42.660;23.316;2023-07-24T06:53:56;94744.34;;;34.73;39.64
6090;BME280;3073;42.660;23.316;2023-07-24T06:56:23;94737.41;;;35.11;39.06
6090;BME280;3073;42.660;23.316;2023-07-24T06:58:50;94746.59;;;34.78;39.35
6090;BME280;3073;42.660;23.316;2023-07-24T07:01:17;94746.56;;;35.72;38.65
6090;BME280;3073;42.660;23.316;2023-07-24T07:03:44;94746.19;;;35.67;38.16
6090;BME280;3073;42.660;23.316;2023-07-24T07:06:10;94748.94;;;35.59;38.08
6090;BME280;3073;42.660;23.316;2023-07-24T07:08:40;94748.16;;;36.58;37.87
6090;BME280;3073;42.660;23.316;2023-07-24T07:11:08;94751.84;;;36.68;37.91
6090;BME280;3073;42.660;23.316;2023-07-24T07:13:38;94757.44;;;36.77;37.24
6090;BME280;3073;42.660;23.316;2023-07-24T07:16:05;94754.09;;;36.29;37.74
6090;BME280;3073;42.660;23.316;2023-07-24T07:18:31;94751.44;;;36.29;38.27
6090;BME280;3073;42.660;23.316;2023-07-24T07:20:58;94748.84;;;36.96;37.59
6090;BME280;3073;42.660;23.316;2023-07-24T07:23:25;94743.72;;;37.43;37.15
6090;BME280;3073;42.660;23.316;2023-07-24T07:25:55;94746.50;;;37.05;37.44
6090;BME280;3073;42.660;23.316;2023-07-24T07:28:23;94736.41;;;36.56;37.85
6090;BME280;3073;42.660;23.316;2023-07-24T07:30:50;94740.44;;;36.68;37.02
6090;BME280;3073;42.660;23.316;2023-07-24T07:33:17;94748.38;;;37.08;37.07
6090;BME280;3073;42.660;23.316;2023-07-24T07:35:46;94738.38;;;36.82;38.05
6090;BME280;3073;42.660;23.316;2023-07-24T07:38:13;94735.00;;;37.42;36.39
6090;BME280;3073;42.660;23.316;2023-07-24T07:40:40;94737.00;;;37.88;36.70
6090;BME280;3073;42.660;23.316;2023-07-24T07:43:07;94743.34;;;38.21;35.43
6090;BME280;3073;42.660;23.316;2023-07-24T07:45:35;94731.94;;;38.83;34.70
6090;BME280;3073;42.660;23.316;2023-07-24T07:48:03;94739.94;;;38.83;34.51
6090;BME280;3073;42.660;23.316;2023-07-24T07:50:30;94744.09;;;37.98;35.07
6090;BME280;3073;42.660;23.316;2023-07-24T07:52:57;94736.66;;;37.33;35.40
6090;BME280;3073;42.660;23.316;2023-07-24T07:55:24;94728.69;;;36.65;36.29
6090;BME280;3073;42.660;23.316;2023-07-24T07:57:51;94738.19;;;36.96;35.52
6090;BME280;3073;42.660;23.316;2023-07-24T08:00:18;94733.81;;;37.43;35.29
6090;BME280;3073;42.660;23.316;2023-07-24T08:02:46;94738.22;;;38.30;34.36
6090;BME280;3073;42.660;23.316;2023-07-24T08:05:22;94741.06;;;37.46;35.26
6090;BME280;3073;42.660;23.316;2023-07-24T08:07:49;94739.34;;;38.33;35.01
6090;BME280;3073;42.660;23.316;2023-07-24T08:10:16;94738.28;;;38.03;35.04
6090;BME280;3073;42.660;23.316;2023-07-24T08:12:43;94731.94;;;38.83;34.31
6090;BME280;3073;42.660;23.316;2023-07-24T08:15:10;94731.88;;;39.06;34.52
6090;BME280;3073;42.660;23.316;2023-07-24T08:17:39;94730.19;;;39.84;33.40
6090;BME280;3073;42.660;23.316;2023-07-24T08:20:08;94728.41;;;38.47;33.56
6090;BME280;3073;42.660;23.316;2023-07-24T08:22:35;94720.66;;;38.95;33.82
6090;BME280;3073;42.660;23.316;2023-07-24T08:25:03;94724.88;;;39.12;32.97
6090;BME280;3073;42.660;23.316;2023-07-24T08:27:30;94726.44;;;38.51;33.48
6090;BME280;3073;42.660;23.316;2023-07-24T08:29:57;94707.69;;;38.74;33.05
6090;BME280;3073;42.660;23.316;2023-07-24T08:32:24;94710.63;;;39.55;33.30
6090;BME280;3073;42.660;23.316;2023-07-24T08:34:52;94705.63;;;39.21;32.84
6090;BME280;3073;42.660;23.316;2023-07-24T08:37:20;94696.75;;;38.69;34.00
6090;BME280;3073;42.660;23.316;2023-07-24T08:39:47;94702.59;;;38.83;32.40
6090;BME280;3073;42.660;23.316;2023-07-24T08:42:14;94699.16;;;39.02;32.09
6090;BME280;3073;42.660;23.316;2023-07-24T08:44:41;94700.69;;;39.55;32.38
6090;BME280;3073;42.660;23.316;2023-07-24T08:47:10;94699.53;;;39.21;32.47
6090;BME280;3073;42.660;23.316;2023-07-24T08:49:39;94693.69;;;39.78;31.52
6090;BME280;3073;42.660;23.316;2023-07-24T08:52:07;94698.19;;;39.97;32.01
6090;BME280;3073;42.660;23.316;2023-07-24T08:54:37;94697.72;;;39.70;31.11
6090;BME280;3073;42.660;23.316;2023-07-24T08:57:06;94697.59;;;39.57;30.89
6090;BME280;3073;42.660;23.316;2023-07-24T08:59:33;94697.59;;;39.57;30.99
6090;BME280;3073;42.660;23.316;2023-07-24T09:02:00;94693.53;;;38.77;31.90
6090;BME280;3073;42.660;23.316;2023-07-24T09:04:27;94700.38;;;38.78;32.17
6090;BME280;3073;42.660;23.316;2023-07-24T09:06:56;94696.34;;;40.26;31.34
6090;BME280;3073;42.660;23.316;2023-07-24T09:09:28;94695.84;;;41.01;30.77
6090;BME280;3073;42.660;23.316;2023-07-24T09:11:57;94689.78;;;41.51;29.77
6090;BME280;3073;42.660;23.316;2023-07-24T09:14:26;94689.63;;;41.93;29.20
6090;BME280;3073;42.660;23.316;2023-07-24T09:17:04;94683.16;;;42.37;28.57
6090;BME280;3073;42.660;23.316;2023-07-24T09:19:31;94680.28;;;42.32;28.43
6090;BME280;3073;42.660;23.316;2023-07-24T09:22:07;94686.25;;;42.70;27.93
6090;BME280;3073;42.660;23.316;2023-07-24T09:24:35;94679.34;;;42.91;28.78
6090;BME280;3073;42.660;23.316;2023-07-24T09:27:06;94676.53;;;43.56;28.18
6090;BME280;3073;42.660;23.316;2023-07-24T09:29:34;94668.25;;;43.10;28.37
6090;BME280;3073;42.660;23.316;2023-07-24T09:32:01;94667.16;;;43.30;27.47
6090;BME280;3073;42.660;23.316;2023-07-24T09:34:28;94668.69;;;42.56;27.33
6090;BME280;3073;42.660;23.316;2023-07-24T09:36:55;94664.28;;;41.94;28.04
6090;BME280;3073;42.660;23.316;2023-07-24T09:39:25;94663.31;;;42.35;28.74
6090;BME280;3073;42.660;23.316;2023-07-24T09:41:52;94650.41;;;42.64;28.08
6090;BME280;3073;42.660;23.316;2023-07-24T09:44:21;94644.84;;;42.80;27.15
6090;BME280;3073;42.660;23.316;2023-07-24T09:46:51;94640.03;;;41.25;27.54
6090;BME280;3073;42.660;23.316;2023-07-24T09:49:18;94629.88;;;43.01;25.78
6090;BME280;3073;42.660;23.316;2023-07-24T09:51:47;94636.56;;;44.03;25.53
6090;BME280;3073;42.660;23.316;2023-07-24T09:54:23;94622.66;;;43.87;24.98
6090;BME280;3073;42.660;23.316;2023-07-24T09:56:52;94628.78;;;44.33;24.04
6090;BME280;3073;42.660;23.316;2023-07-24T09:59:21;94621.28;;;44.00;23.74
6090;BME280;3073;42.660;23.316;2023-07-24T10:01:49;94622.94;;;42.60;25.10
6090;BME280;3073;42.660;23.316;2023-07-24T10:04:17;94624.81;;;43.03;25.55
6090;BME280;3073;42.660;23.316;2023-07-24T10:06:45;94617.88;;;43.82;24.73
6090;BME280;3073;42.660;23.316;2023-07-24T10:09:13;94616.25;;;42.65;26.24
6090;BME280;3073;42.660;23.316;2023-07-24T10:11:39;94615.72;;;41.92;27.14
6090;BME280;3073;42.660;23.316;2023-07-24T10:14:06;94616.53;;;42.01;27.12
6090;BME280;3073;42.660;23.316;2023-07-24T10:16:35;94608.16;;;43.26;25.88
6090;BME280;3073;42.660;23.316;2023-07-24T10:19:12;94607.81;;;43.64;25.61
6090;BME280;3073;42.660;23.316;2023-07-24T10:21:44;94606.97;;;44.22;25.50
6090;BME280;3073;42.660;23.316;2023-07-24T10:24:11;94598.69;;;44.62;24.79
6090;BME280;3073;42.660;23.316;2023-07-24T10:26:39;94596.34;;;44.36;25.34
6090;BME280;3073;42.660;23.316;2023-07-24T10:29:06;94603.81;;;45.01;24.70
6090;BME280;3073;42.660;23.316;2023-07-24T10:31:33;94596.13;;;45.42;24.13
6090;BME280;3073;42.660;23.316;2023-07-24T10:34:05;94598.81;;;45.42;23.91
6090;BME280;3073;42.660;23.316;2023-07-24T10:36:33;94597.03;;;45.86;24.16
6090;BME280;3073;42.660;23.316;2023-07-24T10:39:00;94598.16;;;45.80;23.80
6090;BME280;3073;42.660;23.316;2023-07-24T10:41:34;94593.25;;;45.69;23.66
6090;BME280;3073;42.660;23.316;2023-07-24T10:44:01;94594.25;;;45.57;24.13
6090;BME280;3073;42.660;23.316;2023-07-24T10:46:36;94585.94;;;46.23;24.24
6090;BME280;3073;42.660;23.316;2023-07-24T10:49:05;94584.72;;;44.72;25.22
6090;BME280;3073;42.660;23.316;2023-07-24T10:51:32;94575.34;;;43.40;25.62
6090;BME280;3073;42.660;23.316;2023-07-24T10:54:03;94567.53;;;42.84;26.60
6090;BME280;3073;42.660;23.316;2023-07-24T10:56:30;94568.75;;;43.32;26.28
6090;BME280;3073;42.660;23.316;2023-07-24T10:59:02;94558.91;;;42.28;27.00
6090;BME280;3073;42.660;23.316;2023-07-24T11:01:30;94561.38;;;40.15;28.20
6090;BME280;3073;42.660;23.316;2023-07-24T11:03:58;94560.31;;;40.91;27.79
6090;BME280;3073;42.660;23.316;2023-07-24T11:06:26;94557.31;;;39.94;28.71
6090;BME280;3073;42.660;23.316;2023-07-24T11:08:56;94554.66;;;40.77;28.06
6090;BME280;3073;42.660;23.316;2023-07-24T11:11:28;94553.88;;;40.63;28.03
6090;BME280;3073;42.660;23.316;2023-07-24T11:13:55;94556.78;;;40.69;28.47
6090;BME280;3073;42.660;23.316;2023-07-24T11:16:22;94542.69;;;39.70;28.47
6090;BME280;3073;42.660;23.316;2023-07-24T11:18:50;94556.34;;;40.83;28.29
6090;BME280;3073;42.660;23.316;2023-07-24T11:21:18;94545.50;;;40.87;28.12
6090;BME280;3073;42.660;23.316;2023-07-24T11:23:49;94540.78;;;40.53;28.81
6090;BME280;3073;42.660;23.316;2023-07-24T11:26:18;94528.63;;;42.05;27.49
6090;BME280;3073;42.660;23.316;2023-07-24T11:28:45;94531.00;;;41.47;27.78
6090;BME280;3073;42.660;23.316;2023-07-24T11:31:12;94533.09;;;42.83;26.78
6090;BME280;3073;42.660;23.316;2023-07-24T11:33:40;94519.81;;;41.02;27.86
6090;BME280;3073;42.660;23.316;2023-07-24T11:36:08;94529.56;;;41.08;28.65
6090;BME280;3073;42.660;23.316;2023-07-24T11:38:36;94523.63;;;42.17;28.06
6090;BME280;3073;42.660;23.316;2023-07-24T11:41:08;94527.06;;;43.09;26.60
6090;BME280;3073;42.660;23.316;2023-07-24T11:43:34;94514.19;;;42.34;27.43
6090;BME280;3073;42.660;23.316;2023-07-24T11:46:01;94517.56;;;41.00;27.74
6090;BME280;3073;42.660;23.316;2023-07-24T11:48:29;94512.56;;;39.37;29.64
6090;BME280;3073;42.660;23.316;2023-07-24T11:50:56;94510.56;;;40.15;29.44
6090;BME280;3073;42.660;23.316;2023-07-24T11:53:25;94514.38;;;39.72;29.07
6090;BME280;3073;42.660;23.316;2023-07-24T11:55:53;94512.09;;;39.99;29.18
6090;BME280;3073;42.660;23.316;2023-07-24T11:58:25;94514.34;;;42.08;27.94
6090;BME280;3073;42.660;23.316;2023-07-24T12:00:52;94508.53;;;41.67;28.05
6090;BME280;3073;42.660;23.316;2023-07-24T12:03:20;94506.34;;;42.18;28.59
6090;BME280;3073;42.660;23.316;2023-07-24T12:05:47;94502.38;;;41.79;27.75
6090;BME280;3073;42.660;23.316;2023-07-24T12:08:15;94500.22;;;39.10;29.07
6090;BME280;3073;42.660;23.316;2023-07-24T12:10:43;94494.72;;;39.34;29.00
6090;BME280;3073;42.660;23.316;2023-07-24T12:13:10;94502.97;;;40.26;28.08
6090;BME280;3073;42.660;23.316;2023-07-24T12:15:38;94499.41;;;42.07;27.96
6090;BME280;3073;42.660;23.316;2023-07-24T12:18:05;94503.44;;;41.81;27.50
6090;BME280;3073;42.660;23.316;2023-07-24T12:20:34;94498.88;;;43.23;25.80
6090;BME280;3073;42.660;23.316;2023-07-24T12:23:01;94491.53;;;44.24;25.06
6090;BME280;3073;42.660;23.316;2023-07-24T12:25:35;94494.25;;;42.75;25.79
6090;BME280;3073;42.660;23.316;2023-07-24T12:28:03;94496.41;;;41.28;26.79
6090;BME280;3073;42.660;23.316;2023-07-24T12:30:31;94496.13;;;41.13;26.87
6090;BME280;3073;42.660;23.316;2023-07-24T12:32:59;94479.00;;;43.12;25.94
6090;BME280;3073;42.660;23.316;2023-07-24T12:35:26;94481.41;;;43.73;25.49
6090;BME280;3073;42.660;23.316;2023-07-24T12:37:55;94476.47;;;43.35;25.56
6090;BME280;3073;42.660;23.316;2023-07-24T12:40:24;94487.72;;;44.81;25.23
6090;BME280;3073;42.660;23.316;2023-07-24T12:42:51;94477.06;;;45.34;24.79
6090;BME280;3073;42.660;23.316;2023-07-24T12:45:18;94481.63;;;45.67;24.87
6090;BME280;3073;42.660;23.316;2023-07-24T12:47:45;94470.78;;;43.24;25.59
6090;BME280;3073;42.660;23.316;2023-07-24T12:50:13;94473.03;;;43.17;25.48
6090;BME280;3073;42.660;23.316;2023-07-24T12:52:40;94471.00;;;41.88;26.68
6090;BME280;3073;42.660;23.316;2023-07-24T12:55:07;94466.69;;;42.92;25.77
6090;BME280;3073;42.660;23.316;2023-07-24T12:57:37;94469.47;;;43.83;25.04
6090;BME280;3073;42.660;23.316;2023-07-24T13:00:05;94463.16;;;43.77;25.29
6090;BME280;3073;42.660;23.316;2023-07-24T13:02:35;94462.75;;;43.79;25.48
6090;BME280;3073;42.660;23.316;2023-07-24T13:05:02;94457.41;;;42.84;24.88
6090;BME280;3073;42.660;23.316;2023-07-24T13:07:31;94466.94;;;40.68;27.73
6090;BME280;3073;42.660;23.316;2023-07-24T13:10:06;94455.22;;;41.34;27.75
6090;BME280;3073;42.660;23.316;2023-07-24T13:12:33;94452.59;;;42.61;26.25